createdAt,value
2018-12-31T00:02:27.491Z,7.00
2018-12-31T00:05:08.722Z,7.00
2018-12-31T00:07:49.929Z,7.00
2018-12-31T00:10:31.497Z,7.00
2018-12-31T00:13:11.992Z,7.00
2018-12-31T00:15:52.981Z,7.00
2018-12-31T00:18:34.129Z,7.00
2018-12-31T00:21:15.229Z,7.00
2018-12-31T00:23:56.152Z,7.00
2018-12-31T00:26:37.061Z,7.00
2018-12-31T00:29:18.025Z,7.10
2018-12-31T00:31:58.975Z,7.10
2018-12-31T00:34:39.995Z,7.10
2018-12-31T00:37:20.871Z,7.10
2018-12-31T00:40:02.572Z,7.10
2018-12-31T00:42:43.767Z,7.10
2018-12-31T00:45:24.757Z,7.10
2018-12-31T00:48:05.604Z,7.10
2018-12-31T00:50:46.427Z,7.10
2018-12-31T00:53:26.985Z,7.10
2018-12-31T00:55:55.900Z,7.10
2018-12-31T00:58:44.062Z,7.10
2018-12-31T01:01:32.276Z,7.10
2018-12-31T01:04:20.433Z,7.10
2018-12-31T01:07:08.564Z,7.10
2018-12-31T01:09:56.752Z,7.10
2018-12-31T01:12:44.932Z,7.10
2018-12-31T01:15:33.107Z,7.10
2018-12-31T01:18:21.292Z,7.10
2018-12-31T01:21:09.443Z,7.10
2018-12-31T01:23:57.608Z,7.20
2018-12-31T01:26:45.687Z,7.20
2018-12-31T01:29:14.768Z,7.20
2018-12-31T01:32:02.943Z,7.20
2018-12-31T01:34:51.287Z,7.20
2018-12-31T01:37:39.453Z,7.20
2018-12-31T01:40:20.447Z,7.20
2018-12-31T01:43:01.241Z,7.30
2018-12-31T01:45:42.037Z,7.30
2018-12-31T01:48:22.601Z,7.30
2018-12-31T01:51:10.954Z,7.30
2018-12-31T01:53:45.470Z,7.30
2018-12-31T01:56:26.103Z,7.30
2018-12-31T01:59:06.747Z,7.30
2018-12-31T02:01:47.720Z,7.30
2018-12-31T02:04:28.664Z,7.30
2018-12-31T02:07:09.179Z,7.30
2018-12-31T02:09:49.984Z,7.30
2018-12-31T02:12:30.979Z,7.30
2018-12-31T02:15:11.732Z,7.30
2018-12-31T02:17:52.545Z,7.40
2018-12-31T02:20:33.384Z,7.40
2018-12-31T02:23:14.069Z,7.40
2018-12-31T02:25:54.747Z,7.40
2018-12-31T02:28:35.588Z,7.40
2018-12-31T02:31:16.503Z,7.40
2018-12-31T02:33:57.380Z,7.40
2018-12-31T02:36:38.399Z,7.40
2018-12-31T02:39:19.655Z,7.40
2018-12-31T02:42:00.935Z,7.40
2018-12-31T02:44:42.048Z,7.40
2018-12-31T02:47:22.862Z,7.40
2018-12-31T02:50:03.742Z,7.40
2018-12-31T02:52:44.568Z,7.50
2018-12-31T02:55:25.223Z,7.50
2018-12-31T02:58:06.019Z,7.50
2018-12-31T03:00:46.896Z,7.50
2018-12-31T03:03:27.679Z,7.50
2018-12-31T03:06:08.293Z,7.50
2018-12-31T03:08:49.098Z,7.50
2018-12-31T03:11:29.828Z,7.50
2018-12-31T03:14:11.178Z,7.50
2018-12-31T03:16:52.232Z,7.60
2018-12-31T03:19:32.827Z,7.60
2018-12-31T03:22:13.811Z,7.60
2018-12-31T03:24:54.614Z,7.60
2018-12-31T03:27:35.489Z,7.70
2018-12-31T03:30:16.291Z,7.70
2018-12-31T03:32:57.324Z,7.70
2018-12-31T03:35:38.062Z,7.70
2018-12-31T03:38:18.949Z,7.70
2018-12-31T03:40:59.775Z,7.70
2018-12-31T03:43:40.769Z,7.70
2018-12-31T03:46:21.436Z,7.80
2018-12-31T03:49:02.269Z,7.80
2018-12-31T03:51:43.076Z,7.80
2018-12-31T03:54:24.012Z,7.80
2018-12-31T03:57:05.023Z,7.70
2018-12-31T03:59:45.775Z,7.70
2018-12-31T04:02:26.582Z,7.70
2018-12-31T04:05:07.352Z,7.70
2018-12-31T04:07:52.941Z,7.70
2018-12-31T04:10:31.053Z,7.80
2018-12-31T04:13:11.607Z,7.80
2018-12-31T04:15:52.386Z,7.80
2018-12-31T04:18:33.119Z,7.80
2018-12-31T04:21:14.075Z,7.80
2018-12-31T04:23:54.768Z,7.80
2018-12-31T04:26:35.560Z,7.80
2018-12-31T04:29:16.648Z,7.80
2018-12-31T04:31:57.577Z,7.80
2018-12-31T04:34:38.300Z,7.80
2018-12-31T04:37:18.821Z,7.80
2018-12-31T04:39:59.588Z,7.80
2018-12-31T04:42:40.841Z,7.80
2018-12-31T04:45:21.408Z,7.80
2018-12-31T04:48:02.169Z,7.80
2018-12-31T04:50:43.123Z,7.90
2018-12-31T04:53:24.163Z,7.90
2018-12-31T04:56:04.583Z,7.90
2018-12-31T04:58:43.881Z,7.90
2018-12-31T05:01:32.055Z,7.90
2018-12-31T05:04:21.995Z,7.90
2018-12-31T05:07:10.215Z,8.00
2018-12-31T05:09:58.303Z,8.00
2018-12-31T05:12:46.479Z,7.90
2018-12-31T05:15:15.540Z,7.90
2018-12-31T05:18:03.660Z,8.00
2018-12-31T05:20:51.817Z,8.00
2018-12-31T05:23:39.984Z,8.00
2018-12-31T05:26:28.185Z,8.00
2018-12-31T05:29:16.353Z,8.00
2018-12-31T05:32:04.552Z,8.00
2018-12-31T05:34:52.720Z,8.00
2018-12-31T05:37:40.911Z,8.00
2018-12-31T05:40:22.202Z,8.00
2018-12-31T05:43:02.788Z,8.00
2018-12-31T05:45:43.669Z,8.00
2018-12-31T05:48:24.616Z,8.00
2018-12-31T05:51:05.431Z,8.00
2018-12-31T05:53:46.993Z,8.00
2018-12-31T05:56:27.436Z,8.00
2018-12-31T05:59:08.351Z,8.00
2018-12-31T06:01:49.061Z,8.00
2018-12-31T06:04:30.286Z,8.00
2018-12-31T06:07:11.196Z,8.10
2018-12-31T06:09:52.124Z,8.10
2018-12-31T06:12:21.189Z,8.10
2018-12-31T06:14:50.144Z,8.10
2018-12-31T06:17:19.124Z,8.10
2018-12-31T06:19:48.099Z,8.10
2018-12-31T06:22:17.214Z,8.10
2018-12-31T06:25:05.379Z,8.10
2018-12-31T06:27:53.560Z,8.10
2018-12-31T06:30:41.637Z,8.10
2018-12-31T06:33:29.787Z,8.10
2018-12-31T06:36:17.990Z,8.10
2018-12-31T06:39:07.345Z,8.10
2018-12-31T06:41:48.150Z,8.10
2018-12-31T06:44:29.368Z,8.10
2018-12-31T06:47:10.648Z,8.10
2018-12-31T06:49:51.581Z,8.10
2018-12-31T06:52:32.217Z,8.10
2018-12-31T06:55:01.090Z,8.10
2018-12-31T06:57:49.279Z,8.10
2018-12-31T07:00:37.456Z,8.10
2018-12-31T07:03:25.648Z,8.10
2018-12-31T07:06:13.855Z,8.10
2018-12-31T07:09:01.959Z,8.10
2018-12-31T07:11:50.116Z,8.10
2018-12-31T07:14:38.298Z,8.10
2018-12-31T07:17:26.477Z,8.10
2018-12-31T07:23:08.388Z,8.10
2018-12-31T07:25:56.565Z,8.10
2018-12-31T07:28:44.805Z,8.20
2018-12-31T07:31:33.059Z,8.20
2018-12-31T07:34:21.166Z,8.20
2018-12-31T07:37:09.333Z,8.20
2018-12-31T07:39:57.529Z,8.20
2018-12-31T07:42:38.035Z,8.20
2018-12-31T07:45:18.493Z,8.20
2018-12-31T07:47:59.777Z,8.20
2018-12-31T07:50:40.169Z,8.20
2018-12-31T07:53:21.106Z,8.20
2018-12-31T07:56:01.606Z,8.20
2018-12-31T07:58:42.624Z,8.20
2018-12-31T08:01:23.879Z,8.20
2018-12-31T08:04:04.677Z,8.20
2018-12-31T08:06:45.435Z,8.20
2018-12-31T08:09:26.263Z,8.30
2018-12-31T08:12:07.377Z,8.30
2018-12-31T08:14:47.753Z,8.40
2018-12-31T08:17:28.718Z,8.50
2018-12-31T08:20:09.195Z,8.60
2018-12-31T08:22:50.153Z,8.60
2018-12-31T08:25:31.651Z,8.60
2018-12-31T08:31:07.907Z,8.60
2018-12-31T08:39:56.966Z,8.70
2018-12-31T08:42:37.583Z,8.80
2018-12-31T08:45:18.057Z,8.80
2018-12-31T08:47:58.636Z,8.90
2018-12-31T08:50:39.341Z,9.00
2018-12-31T08:53:19.766Z,9.00
2018-12-31T08:56:00.353Z,9.00
2018-12-31T08:58:41.528Z,9.00
2018-12-31T09:01:22.493Z,9.00
2018-12-31T09:04:03.312Z,9.00
2018-12-31T09:06:32.773Z,9.00
2018-12-31T09:09:21.130Z,8.90
2018-12-31T09:14:43.867Z,8.90
2018-12-31T09:17:32.197Z,8.90
2018-12-31T09:20:20.406Z,8.90
2018-12-31T09:23:08.519Z,8.90
2018-12-31T09:25:56.858Z,9.00
2018-12-31T09:28:45.073Z,9.00
2018-12-31T09:31:33.323Z,9.10
2018-12-31T09:34:21.491Z,9.10
2018-12-31T09:36:50.508Z,9.10
2018-12-31T09:39:38.727Z,9.10
2018-12-31T09:42:20.178Z,9.10
2018-12-31T09:45:00.976Z,9.10
2018-12-31T09:47:41.717Z,9.20
2018-12-31T09:50:22.797Z,9.10
2018-12-31T09:53:03.789Z,9.20
2018-12-31T09:55:47.581Z,9.20
2018-12-31T09:58:28.662Z,9.30
2018-12-31T10:01:09.077Z,9.30
2018-12-31T10:03:49.859Z,9.40
2018-12-31T10:06:30.570Z,9.40
2018-12-31T10:09:12.067Z,9.40
2018-12-31T10:11:41.192Z,9.40
2018-12-31T10:14:29.372Z,9.40
2018-12-31T10:17:17.536Z,9.40
2018-12-31T10:20:06.153Z,9.40
2018-12-31T10:22:54.411Z,9.40
2018-12-31T10:25:23.419Z,9.40
2018-12-31T10:28:11.513Z,9.40
2018-12-31T10:30:59.686Z,9.30
2018-12-31T10:33:47.775Z,9.40
2018-12-31T10:36:35.901Z,9.40
2018-12-31T10:42:31.244Z,9.40
2018-12-31T10:45:12.376Z,9.40
2018-12-31T10:47:52.943Z,9.40
2018-12-31T10:50:33.636Z,9.40
2018-12-31T10:53:14.855Z,9.40
2018-12-31T10:55:55.723Z,9.50
2018-12-31T10:58:36.385Z,9.50
2018-12-31T11:01:17.556Z,9.50
2018-12-31T11:03:58.375Z,9.50
2018-12-31T11:06:39.043Z,9.50
2018-12-31T11:09:19.801Z,9.60
2018-12-31T11:12:00.753Z,9.60
2018-12-31T11:14:41.496Z,9.60
2018-12-31T11:17:22.237Z,9.60
2018-12-31T11:20:03.020Z,9.60
2018-12-31T11:22:44.231Z,9.70
2018-12-31T11:25:24.967Z,9.70
2018-12-31T11:28:08.634Z,9.70
2018-12-31T11:30:51.659Z,9.70
2018-12-31T11:33:32.531Z,9.70
2018-12-31T11:36:13.332Z,9.80
2018-12-31T11:38:54.165Z,9.80
2018-12-31T11:41:35.402Z,9.80
2018-12-31T11:44:15.896Z,9.80
2018-12-31T11:46:56.715Z,9.90
2018-12-31T11:49:37.658Z,9.80
2018-12-31T11:52:18.705Z,9.70
2018-12-31T11:54:59.962Z,9.70
2018-12-31T11:57:41.295Z,9.80
2018-12-31T12:00:22.506Z,9.80
2018-12-31T12:03:03.198Z,9.80
2018-12-31T12:05:44.271Z,9.80
2018-12-31T12:08:24.977Z,9.80
2018-12-31T12:11:05.711Z,9.80
2018-12-31T12:13:46.409Z,9.90
2018-12-31T12:16:26.981Z,9.90
2018-12-31T12:19:07.894Z,9.90
2018-12-31T12:21:49.195Z,9.90
2018-12-31T12:24:30.064Z,9.90
2018-12-31T12:27:10.851Z,9.80
2018-12-31T12:29:51.754Z,9.80
2018-12-31T12:32:32.697Z,9.80
2018-12-31T12:35:13.548Z,9.70
2018-12-31T12:37:54.401Z,9.70
2018-12-31T12:40:35.166Z,9.70
2018-12-31T12:43:16.145Z,9.60
2018-12-31T12:45:57.479Z,9.50
2018-12-31T12:48:39.400Z,9.60
2018-12-31T12:51:19.983Z,9.50
2018-12-31T12:54:00.753Z,9.50
2018-12-31T12:56:41.380Z,9.50
2018-12-31T12:59:22.236Z,9.40
2018-12-31T13:02:03.493Z,9.50
2018-12-31T13:04:44.253Z,9.50
2018-12-31T13:07:25.201Z,9.50
2018-12-31T13:10:06.798Z,9.40
2018-12-31T13:15:43.233Z,9.50
2018-12-31T13:18:31.477Z,9.50
2018-12-31T13:21:19.607Z,9.50
2018-12-31T13:27:15.067Z,9.50
2018-12-31T13:30:03.244Z,9.50
2018-12-31T13:35:45.735Z,9.50
2018-12-31T13:38:33.977Z,9.50
2018-12-31T13:41:22.613Z,9.40
2018-12-31T13:44:03.312Z,9.50
2018-12-31T13:46:44.376Z,9.50
2018-12-31T13:49:25.276Z,9.50
2018-12-31T13:52:04.626Z,9.40
2018-12-31T13:54:53.158Z,9.40
2018-12-31T13:57:41.460Z,9.40
2018-12-31T14:00:29.695Z,9.40
2018-12-31T14:03:19.654Z,9.40
2018-12-31T14:06:08.023Z,9.40
2018-12-31T14:08:37.187Z,9.40
2018-12-31T14:11:06.321Z,9.40
2018-12-31T14:13:35.602Z,9.40
2018-12-31T14:16:05.025Z,9.40
2018-12-31T14:18:34.178Z,9.40
2018-12-31T14:21:03.567Z,9.40
2018-12-31T14:23:33.076Z,9.40
2018-12-31T14:26:09.109Z,9.40
2018-12-31T14:28:38.100Z,9.30
2018-12-31T14:31:26.645Z,9.30
2018-12-31T14:34:14.915Z,9.30
2018-12-31T14:37:03.718Z,9.30
2018-12-31T14:39:51.815Z,9.30
2018-12-31T14:42:41.704Z,9.30
2018-12-31T14:45:22.698Z,9.20
2018-12-31T14:48:03.466Z,9.20
2018-12-31T14:50:44.679Z,9.20
2018-12-31T14:53:25.381Z,9.20
2018-12-31T14:56:06.547Z,9.10
2018-12-31T14:58:47.301Z,9.10
2018-12-31T15:01:16.298Z,9.10
2018-12-31T15:03:45.431Z,9.10
2018-12-31T15:06:33.830Z,9.10
2018-12-31T15:09:22.097Z,9.10
2018-12-31T15:12:10.264Z,9.10
2018-12-31T15:14:58.435Z,9.10
2018-12-31T15:17:46.628Z,9.10
2018-12-31T15:20:34.889Z,9.10
2018-12-31T15:23:23.142Z,9.10
2018-12-31T15:29:18.599Z,9.00
2018-12-31T15:32:06.935Z,9.00
2018-12-31T15:34:55.196Z,9.00
2018-12-31T15:37:36.650Z,9.00
2018-12-31T15:40:17.900Z,9.00
2018-12-31T15:42:58.472Z,9.00
2018-12-31T15:45:39.529Z,9.00
2018-12-31T15:48:20.090Z,9.00
2018-12-31T15:51:01.556Z,9.00
2018-12-31T15:53:43.211Z,9.00
2018-12-31T15:56:24.272Z,9.00
2018-12-31T15:59:05.319Z,9.00
2018-12-31T16:01:46.306Z,9.00
2018-12-31T16:04:27.533Z,9.00
2018-12-31T16:07:08.735Z,9.00
2018-12-31T16:09:49.681Z,9.00
2018-12-31T16:12:30.577Z,9.00
2018-12-31T16:15:11.372Z,9.00
2018-12-31T16:17:52.099Z,9.00
2018-12-31T16:20:32.938Z,9.00
2018-12-31T16:23:13.559Z,9.00
2018-12-31T16:25:54.431Z,9.00
2018-12-31T16:28:35.471Z,9.00
2018-12-31T16:31:16.345Z,9.00
2018-12-31T16:33:57.358Z,9.10
2018-12-31T16:36:38.613Z,9.10
2018-12-31T16:39:19.335Z,9.10
2018-12-31T16:42:00.027Z,9.10
2018-12-31T16:44:41.092Z,9.10
2018-12-31T16:47:21.427Z,9.10
2018-12-31T16:50:02.512Z,9.10
2018-12-31T16:52:41.731Z,9.10
2018-12-31T16:55:29.899Z,9.10
2018-12-31T16:58:18.252Z,9.20
2018-12-31T17:01:06.444Z,9.10
2018-12-31T17:03:56.423Z,9.10
2018-12-31T17:06:44.824Z,9.10
2018-12-31T17:09:34.705Z,9.10
2018-12-31T17:12:22.911Z,9.10
2018-12-31T17:15:11.115Z,9.10
2018-12-31T17:17:59.300Z,9.20
2018-12-31T17:20:47.689Z,9.20
2018-12-31T17:23:35.885Z,9.10
2018-12-31T17:26:24.033Z,9.20
2018-12-31T17:29:12.498Z,9.10
2018-12-31T17:32:00.987Z,9.20
2018-12-31T17:34:49.377Z,9.20
2018-12-31T17:37:59.193Z,9.20
2018-12-31T17:40:31.779Z,9.10
2018-12-31T17:43:19.952Z,9.20
2018-12-31T17:46:01.444Z,9.20
2018-12-31T17:48:41.861Z,9.20
2018-12-31T17:51:22.424Z,9.20
2018-12-31T17:54:03.429Z,9.20
2018-12-31T17:56:44.267Z,9.20
2018-12-31T17:59:24.685Z,9.20
2018-12-31T18:02:05.744Z,9.20
2018-12-31T18:04:46.192Z,9.20
2018-12-31T18:07:15.376Z,9.20
2018-12-31T18:10:03.664Z,9.20
2018-12-31T18:12:51.839Z,9.20
2018-12-31T18:15:39.937Z,9.20
2018-12-31T18:18:28.064Z,9.20
2018-12-31T18:21:16.141Z,9.20
2018-12-31T18:24:04.319Z,9.20
2018-12-31T18:26:52.499Z,9.20
2018-12-31T18:29:48.351Z,9.20
2018-12-31T18:32:36.557Z,9.20
2018-12-31T18:35:24.738Z,9.20
2018-12-31T18:37:53.712Z,9.20
2018-12-31T18:40:41.889Z,9.20
2018-12-31T18:43:30.119Z,9.20
2018-12-31T18:46:10.627Z,9.20
2018-12-31T18:48:52.119Z,9.20
2018-12-31T18:51:33.457Z,9.20
2018-12-31T18:54:14.399Z,9.20
2018-12-31T18:56:55.178Z,9.20
2018-12-31T18:59:36.400Z,9.20
2018-12-31T19:02:17.548Z,9.10
2018-12-31T19:04:56.755Z,9.20
2018-12-31T19:07:45.228Z,9.20
2018-12-31T19:10:35.151Z,9.20
2018-12-31T19:16:17.003Z,9.20
2018-12-31T19:19:05.164Z,9.20
2018-12-31T19:21:55.263Z,9.20
2018-12-31T19:24:43.591Z,9.20
2018-12-31T19:30:20.039Z,9.20
2018-12-31T19:33:08.213Z,9.10
2018-12-31T19:35:56.367Z,9.10
2018-12-31T19:38:44.568Z,9.10
2018-12-31T19:44:09.219Z,9.10
2018-12-31T19:46:50.323Z,9.10
2018-12-31T19:49:29.691Z,9.00
2018-12-31T19:52:18.289Z,9.00
2018-12-31T19:58:13.803Z,9.00
2018-12-31T20:01:02.046Z,9.00
2018-12-31T20:03:51.872Z,9.00
2018-12-31T20:06:40.033Z,9.00
2018-12-31T20:15:12.043Z,8.90
2018-12-31T20:18:00.497Z,8.90
2018-12-31T20:20:50.402Z,8.90
2018-12-31T20:23:38.847Z,8.90
2018-12-31T20:26:28.777Z,8.90
2018-12-31T20:29:16.844Z,8.90
2018-12-31T20:35:04.169Z,8.90
2018-12-31T20:40:46.562Z,8.80
2018-12-31T20:43:37.476Z,8.80
2018-12-31T20:49:26.199Z,8.80
2018-12-31T20:52:09.403Z,8.80
2018-12-31T20:54:38.744Z,8.80
2018-12-31T20:57:26.931Z,8.70
2018-12-31T21:00:15.182Z,8.70
2018-12-31T21:03:03.441Z,8.80
2018-12-31T21:05:51.614Z,8.80
2018-12-31T21:08:39.816Z,8.70
2018-12-31T21:11:27.979Z,8.70
2018-12-31T21:14:17.877Z,8.70
2018-12-31T21:17:06.148Z,8.70
2018-12-31T21:19:56.128Z,8.70
2018-12-31T21:22:44.436Z,8.70
2018-12-31T21:25:34.312Z,8.60
2018-12-31T21:28:22.537Z,8.60
2018-12-31T21:31:12.441Z,8.60
2018-12-31T21:34:00.629Z,8.60
2018-12-31T21:36:48.973Z,8.60
2018-12-31T21:39:37.270Z,8.60
2018-12-31T21:42:25.452Z,8.50
2018-12-31T21:45:13.627Z,8.50
2018-12-31T21:47:54.157Z,8.50
2018-12-31T21:50:34.603Z,8.50
2018-12-31T21:53:15.236Z,8.50
2018-12-31T21:58:44.960Z,8.50
2018-12-31T22:01:25.407Z,8.50
2018-12-31T22:04:06.346Z,8.50
2018-12-31T22:06:47.254Z,8.50
2018-12-31T22:09:27.738Z,8.40
2018-12-31T22:12:08.767Z,8.40
2018-12-31T22:14:49.920Z,8.40
2018-12-31T22:17:30.567Z,8.40
2018-12-31T22:20:12.127Z,8.40
2018-12-31T22:22:52.637Z,8.40
2018-12-31T22:25:33.805Z,8.40
2018-12-31T22:28:14.485Z,8.40
2018-12-31T22:30:55.337Z,8.40
2018-12-31T22:33:36.041Z,8.40
2018-12-31T22:36:17.343Z,8.40
2018-12-31T22:38:46.509Z,8.40
2018-12-31T22:41:34.769Z,8.40
2018-12-31T22:44:22.958Z,8.40
2018-12-31T22:47:11.420Z,8.40
2018-12-31T22:49:51.887Z,8.30
2018-12-31T22:52:32.566Z,8.30
2018-12-31T22:55:13.395Z,8.30
2018-12-31T22:57:53.924Z,8.30
2018-12-31T23:00:36.754Z,8.20
2018-12-31T23:03:17.297Z,8.20
2018-12-31T23:05:57.923Z,8.20
2018-12-31T23:08:39.111Z,8.20
2018-12-31T23:11:20.300Z,8.20
2018-12-31T23:14:00.868Z,8.20
2018-12-31T23:16:41.545Z,8.20
2018-12-31T23:19:22.373Z,8.20
2018-12-31T23:22:03.077Z,8.10
2018-12-31T23:24:44.393Z,8.10
2018-12-31T23:27:25.466Z,8.10
2018-12-31T23:30:06.467Z,8.10
2018-12-31T23:32:47.929Z,8.10
2018-12-31T23:35:17.125Z,8.00
2018-12-31T23:37:47.946Z,8.00
2018-12-31T23:40:36.187Z,8.00
2018-12-31T23:43:24.412Z,8.00
2018-12-31T23:46:12.624Z,8.00
2018-12-31T23:48:53.578Z,7.90
2018-12-31T23:51:34.130Z,7.90
2018-12-31T23:54:15.265Z,7.80
2018-12-31T23:56:44.418Z,7.80
2018-12-31T23:59:13.786Z,7.80
